»·PEaware :: BAW9CG EGLL-KPHX

BAW9CG :: EGLL-KPHX

FLIGHT INFORMATION

Flight Status: Arrived
Operator:
British Airways
More flights by this operator :: More flights under this callsign
Pilot: Bryan S. (13276)
Aircraft: Unknown
(B77W)
More flights by this aircraft type
Origin: EGLL Heathrow
United Kingdom
Destination: KPHX Phoenix Sky Harbor Intl
United States
More flights between these airports :: More routes between these airports
Route: + EGLL BUZA4J BUZAD UT420 TNT UN57 POL UN601 ABEVI UN590 GOW DCT ERAKA NATA KETLA N876A GRIBS N878A JELCO SCAJ VBI J107 DDY J202 OCS J107 URNUW J11 CORKR TENTS BRUSR1 KPHX
File this flight plan on PilotEdge
Remarks:
Altitude:
(Current/Filed)
35,000ft
Speed:
(Current/Filed)
475kts
Departed: 26-Feb-18 01:12 PM
Arrived: 26-Feb-18 07:37 PM
Distance/Time
Traveled:
4566nm/6:24
Distance/Time
To Go:
Arrived

Flight Plot

Page will automatically refresh every two minutes.

Flight plan parsing failed; only flown route is shown


Map Options




Map Legend


Flown Route
Filed Route
Departure Airport
Arrival Airport
Navaid (VOR, NDB)
Fix

Horizontal Profiles

Position Reports

Time Latitude Longitude Heading Altitude Ground
Speed
26-Feb-18 12:36 51.474442 -0.462932 205 90ft 0kts
26-Feb-18 12:37 51.474442 -0.462932 205 90ft 0kts
26-Feb-18 12:38 51.474441 -0.462932 205 90ft 0kts
26-Feb-18 12:39 51.474441 -0.462932 205 90ft 0kts
26-Feb-18 12:40 51.474441 -0.462932 205 90ft 0kts
26-Feb-18 12:41 51.474441 -0.462932 205 90ft 0kts
26-Feb-18 12:42 51.474441 -0.462932 205 90ft 0kts
26-Feb-18 12:43 51.474441 -0.462932 205 90ft 0kts
26-Feb-18 12:44 51.474441 -0.462932 205 90ft 0kts
26-Feb-18 12:45 51.474441 -0.462932 205 89ft 0kts
26-Feb-18 12:46 51.474441 -0.462932 205 89ft 0kts
26-Feb-18 12:47 51.474441 -0.462932 205 89ft 0kts
26-Feb-18 12:48 51.474441 -0.462932 205 89ft 0kts
26-Feb-18 12:49 51.474441 -0.462932 205 89ft 0kts
26-Feb-18 12:50 51.474441 -0.462932 205 89ft 0kts
26-Feb-18 12:51 51.474441 -0.462932 205 89ft 0kts
26-Feb-18 12:52 51.474441 -0.462932 205 89ft 0kts
26-Feb-18 12:53 51.474441 -0.462932 205 89ft 0kts
26-Feb-18 12:54 51.474441 -0.462932 205 89ft 0kts
26-Feb-18 12:55 51.474441 -0.462932 205 89ft 0kts
26-Feb-18 12:56 51.474441 -0.462932 205 89ft 0kts
26-Feb-18 12:57 51.474441 -0.462932 205 89ft 0kts
26-Feb-18 12:58 51.474441 -0.462932 205 89ft 0kts
26-Feb-18 12:59 51.474441 -0.462932 205 89ft 0kts
26-Feb-18 13:00 51.474441 -0.462932 205 89ft 0kts
26-Feb-18 13:01 51.474441 -0.462932 205 89ft 0kts
26-Feb-18 13:02 51.474441 -0.462932 205 89ft 0kts
26-Feb-18 13:03 51.474656 -0.462772 205 89ft 2kts
26-Feb-18 13:04 51.475113 -0.462200 250 90ft 2kts
26-Feb-18 13:05 51.475146 -0.461808 272 90ft 0kts
26-Feb-18 13:06 51.475146 -0.461808 272 90ft 0kts
26-Feb-18 13:07 51.475153 -0.462061 272 89ft 8kts
26-Feb-18 13:08 51.475146 -0.465887 270 89ft 10kts
26-Feb-18 13:09 51.473804 -0.468875 167 89ft 8kts
26-Feb-18 13:10 51.470760 -0.468634 179 87ft 13kts
26-Feb-18 13:11 51.467029 -0.468633 179 86ft 7kts
26-Feb-18 13:12 51.466557 -0.471613 269 86ft 11kts
26-Feb-18 13:13 51.466551 -0.477042 270 89ft 13kts
26-Feb-18 13:14 51.466524 -0.483649 270 86ft 16kts
26-Feb-18 13:15 51.465306 -0.487873 165 86ft 11kts
26-Feb-18 13:16 51.464784 -0.486034 89 86ft 1kts
26-Feb-18 13:17 51.464778 -0.484628 90 86ft 2kts
26-Feb-18 13:18 51.464777 -0.482834 89 86ft 2kts
26-Feb-18 13:19 51.464783 -0.435084 87 1260ft 204kts
26-Feb-18 13:20 51.496652 -0.353759 50 5104ft 246kts
26-Feb-18 13:21 51.530440 -0.262461 68 6487ft 273kts
26-Feb-18 13:22 51.569037 -0.177477 11 10418ft 257kts
26-Feb-18 13:23 51.638945 -0.251518 330 13703ft 355kts
26-Feb-18 13:24 51.721798 -0.338092 334 19980ft 377kts
26-Feb-18 13:25 51.877099 -0.488640 334 29336ft 429kts
26-Feb-18 13:26 52.049030 -0.656708 333 32420ft 450kts
26-Feb-18 13:27 52.379800 -0.984173 333 32446ft 466kts
26-Feb-18 13:28 52.577106 -1.182309 334 32505ft 460kts
26-Feb-18 13:29 52.859437 -1.469395 334 32503ft 443kts
26-Feb-18 13:30 53.095734 -1.695190 346 32486ft 427kts
26-Feb-18 13:31 53.381741 -1.873991 346 32119ft 432kts
26-Feb-18 13:32 53.643292 -2.039182 346 32274ft 450kts
26-Feb-18 13:33 53.841804 -2.170042 345 32204ft 449kts
26-Feb-18 13:34 54.042929 -2.308233 344 32422ft 448kts
26-Feb-18 13:35 54.241209 -2.445855 345 32570ft 428kts
26-Feb-18 13:36 54.423506 -2.573417 345 35583ft 432kts
26-Feb-18 13:37 54.691657 -2.764061 341 35555ft 442kts
26-Feb-18 13:38 54.978188 -3.152079 329 35607ft 459kts
26-Feb-18 13:39 55.259852 -3.552044 329 35621ft 460kts
26-Feb-18 13:40 55.541068 -3.958965 328 35625ft 461kts
26-Feb-18 13:41 55.816299 -4.364869 328 35638ft 461kts
26-Feb-18 13:42 56.052751 -4.874211 315 35631ft 479kts
26-Feb-18 13:43 56.279876 -5.419157 314 35634ft 480kts
26-Feb-18 13:44 56.507091 -5.976736 313 35616ft 480kts
26-Feb-18 13:45 56.731551 -6.540417 313 35640ft 480kts
26-Feb-18 13:46 56.954155 -7.112593 312 35338ft 482kts
26-Feb-18 13:47 57.177853 -7.701766 311 35002ft 487kts
26-Feb-18 13:48 57.401388 -8.305163 311 35002ft 487kts
26-Feb-18 13:49 57.618511 -8.906115 310 34998ft 487kts
26-Feb-18 13:50 57.798598 -9.416276 309 34997ft 484kts
26-Feb-18 13:51 58.021861 -10.089306 302 34994ft 491kts
26-Feb-18 13:52 58.172651 -10.695080 300 35002ft 492kts
26-Feb-18 13:53 58.319182 -11.302848 299 35002ft 486kts
26-Feb-18 13:54 58.462829 -11.915733 298 35000ft 486kts
26-Feb-18 13:55 58.579419 -12.426421 298 35000ft 486kts
26-Feb-18 13:56 58.713242 -13.028082 297 34998ft 485kts
26-Feb-18 13:57 58.878870 -13.797976 295 35429ft 486kts
26-Feb-18 13:58 59.000000 -14.379638 294 35449ft 485kts
26-Feb-18 13:59 59.141503 -15.080974 292 35451ft 480kts
26-Feb-18 14:00 59.271581 -15.748903 291 35453ft 480kts
26-Feb-18 14:01 59.378610 -16.315752 291 35452ft 480kts
26-Feb-18 14:02 59.479952 -16.868227 289 35444ft 477kts
26-Feb-18 14:03 59.577905 -17.418480 287 35372ft 488kts
26-Feb-18 14:04 59.671090 -17.957310 286 35354ft 488kts
26-Feb-18 14:05 59.760503 -18.489707 286 35344ft 488kts
26-Feb-18 14:06 59.845963 -19.013680 285 35345ft 488kts
26-Feb-18 14:07 59.929848 -19.543836 283 35343ft 491kts
26-Feb-18 14:08 60.004942 -20.036209 281 35346ft 488kts
26-Feb-18 14:09 60.085915 -20.618970 281 35353ft 490kts
26-Feb-18 14:10 60.185773 -21.370126 278 35340ft 487kts
26-Feb-18 14:11 60.282102 -22.132139 278 35317ft 487kts
26-Feb-18 14:12 60.374485 -22.901724 276 35314ft 485kts
26-Feb-18 14:13 60.460573 -23.660093 274 35342ft 477kts
26-Feb-18 14:14 60.542115 -24.419726 274 35343ft 477kts
26-Feb-18 14:15 60.619252 -25.181637 272 35347ft 476kts
26-Feb-18 14:16 60.692070 -25.949134 271 35349ft 475kts
26-Feb-18 14:17 60.760601 -26.720454 270 35350ft 475kts
26-Feb-18 14:18 60.825120 -27.500465 270 35349ft 484kts
26-Feb-18 14:19 60.885617 -28.290471 270 35351ft 482kts
26-Feb-18 14:20 60.931558 -28.936715 268 35353ft 480kts
26-Feb-18 14:21 60.968055 -29.487650 268 35351ft 480kts
26-Feb-18 14:22 61.007346 -30.069629 277 35352ft 492kts
26-Feb-18 14:23 61.098784 -30.716807 275 35016ft 490kts
26-Feb-18 14:24 61.185345 -31.372475 274 34976ft 492kts
26-Feb-18 14:25 61.270074 -32.043922 274 35008ft 500kts
26-Feb-18 14:26 61.351511 -32.717726 272 34988ft 496kts
26-Feb-18 14:27 61.429859 -33.398051 273 34998ft 500kts
26-Feb-18 14:28 61.503821 -34.072450 271 34982ft 490kts
26-Feb-18 14:29 61.574044 -34.746389 271 34997ft 491kts
26-Feb-18 14:30 61.640588 -35.419636 271 34999ft 489kts
26-Feb-18 14:31 61.703887 -36.096322 271 34998ft 487kts
26-Feb-18 14:32 61.763670 -36.773927 270 35005ft 486kts
26-Feb-18 14:33 61.820363 -37.457552 272 35003ft 489kts
26-Feb-18 14:34 61.873969 -38.147364 271 35003ft 490kts
26-Feb-18 14:35 61.923546 -38.831731 270 35007ft 488kts
26-Feb-18 14:36 61.970045 -39.523377 273 35004ft 492kts
26-Feb-18 14:37 62.029364 -40.215111 282 35002ft 498kts
26-Feb-18 14:38 62.122924 -40.901860 281 34997ft 495kts
26-Feb-18 14:39 62.184905 -41.375969 283 35992ft 490kts
26-Feb-18 14:40 62.220664 -41.656433 282 35997ft 490kts
26-Feb-18 14:41 62.255780 -41.937019 282 35999ft 490kts
26-Feb-18 14:42 62.321629 -42.477767 282 35998ft 490kts
26-Feb-18 14:43 62.409627 -43.234084 283 36000ft 482kts
26-Feb-18 14:44 62.495896 -44.014767 282 35999ft 482kts
26-Feb-18 14:45 62.577886 -44.802048 281 36000ft 482kts
26-Feb-18 14:46 62.654894 -45.587979 283 35997ft 474kts
26-Feb-18 14:47 62.727256 -46.375307 282 35996ft 474kts
26-Feb-18 14:48 62.794054 -47.153101 283 35998ft 470kts
26-Feb-18 14:49 62.852938 -47.886810 282 35996ft 470kts
26-Feb-18 14:50 62.907389 -48.615522 282 36149ft 470kts
26-Feb-18 14:51 62.956959 -49.329863 280 36152ft 474kts
26-Feb-18 14:52 62.992195 -50.187098 267 36152ft 478kts
26-Feb-18 14:53 62.956626 -51.056055 264 36153ft 480kts
26-Feb-18 14:54 62.914260 -51.933558 263 36155ft 484kts
26-Feb-18 14:55 62.866442 -52.810762 262 36150ft 484kts
26-Feb-18 14:56 62.812721 -53.692309 259 36162ft 491kts
26-Feb-18 14:57 62.753084 -54.576479 259 36151ft 491kts
26-Feb-18 14:58 62.687860 -55.457761 256 36159ft 492kts
26-Feb-18 14:59 62.616902 -56.337457 255 36155ft 491kts
26-Feb-18 15:00 62.540512 -57.212817 253 36156ft 492kts
26-Feb-18 15:01 62.452147 -58.079219 245 36159ft 486kts
26-Feb-18 15:02 62.314257 -58.877823 243 36110ft 484kts
26-Feb-18 15:03 62.171589 -59.664491 242 36079ft 484kts
26-Feb-18 15:04 62.024525 -60.443489 242 36077ft 483kts
26-Feb-18 15:05 61.874160 -61.209387 242 35984ft 482kts
26-Feb-18 15:06 61.719256 -61.969802 241 35983ft 482kts
26-Feb-18 15:07 61.560815 -62.719336 240 35978ft 479kts
26-Feb-18 15:08 61.412911 -63.476494 245 35981ft 485kts
26-Feb-18 15:09 61.269875 -64.234679 244 35852ft 484kts
26-Feb-18 15:10 61.121390 -64.992014 243 35850ft 484kts
26-Feb-18 15:11 60.969166 -65.740282 243 35594ft 484kts
26-Feb-18 15:12 60.816282 -66.465125 243 35572ft 484kts
26-Feb-18 15:13 60.655973 -67.201417 243 35571ft 482kts
26-Feb-18 15:14 60.492924 -67.932001 242 35569ft 481kts
26-Feb-18 15:15 60.327001 -68.650399 241 35569ft 481kts
26-Feb-18 15:16 60.155796 -69.367379 242 35568ft 480kts
26-Feb-18 15:17 59.982128 -70.070600 241 35570ft 480kts
26-Feb-18 15:18 59.804562 -70.760790 240 35571ft 479kts
26-Feb-18 15:19 59.623173 -71.444471 240 35569ft 481kts
26-Feb-18 15:20 59.438075 -72.121397 239 35569ft 481kts
26-Feb-18 15:21 59.249444 -72.791128 239 35743ft 481kts
26-Feb-18 15:22 59.057000 -73.454835 239 35742ft 482kts
26-Feb-18 15:23 58.862816 -74.105678 239 35725ft 478kts
26-Feb-18 15:24 58.666481 -74.745846 238 35726ft 478kts
26-Feb-18 15:25 58.464394 -75.386900 239 35724ft 480kts
26-Feb-18 15:26 58.260334 -76.016952 238 35708ft 480kts
26-Feb-18 15:27 58.058628 -76.623641 238 35704ft 480kts
26-Feb-18 15:28 57.849903 -77.235544 237 35706ft 478kts
26-Feb-18 15:29 57.635898 -77.847023 237 35707ft 479kts
26-Feb-18 15:30 57.419117 -78.450927 237 35706ft 479kts
26-Feb-18 15:31 57.201408 -79.042493 236 35707ft 478kts
26-Feb-18 15:32 56.981347 -79.625918 237 35705ft 471kts
26-Feb-18 15:33 56.760049 -80.198831 236 35706ft 472kts
26-Feb-18 15:34 56.584449 -80.643731 236 35705ft 472kts
26-Feb-18 15:35 56.395060 -81.114576 235 35824ft 467kts
26-Feb-18 15:36 56.196904 -81.597652 235 35997ft 467kts
26-Feb-18 15:37 55.994980 -82.080237 235 35999ft 468kts
26-Feb-18 15:38 55.791315 -82.557492 235 35997ft 468kts
26-Feb-18 15:39 55.562797 -83.082177 233 35999ft 468kts
26-Feb-18 15:40 55.323055 -83.620774 233 35997ft 468kts
26-Feb-18 15:41 55.079621 -84.155714 233 35999ft 468kts
26-Feb-18 15:42 54.835692 -84.680355 232 36001ft 467kts
26-Feb-18 15:43 54.588826 -85.200087 232 35999ft 464kts
26-Feb-18 15:44 54.342375 -85.708165 231 36002ft 464kts
26-Feb-18 15:45 54.092501 -86.212870 231 35998ft 464kts
26-Feb-18 15:46 53.845091 -86.702514 230 36002ft 464kts
26-Feb-18 15:47 53.595605 -87.186618 230 35999ft 466kts
26-Feb-18 15:48 53.353456 -87.647604 230 35997ft 466kts
26-Feb-18 15:49 53.105661 -88.110475 230 35862ft 466kts
26-Feb-18 15:50 52.866185 -88.549698 231 35859ft 463kts
26-Feb-18 15:51 52.697507 -88.854440 230 35863ft 463kts
26-Feb-18 15:52 52.576104 -89.071448 230 35862ft 463kts
26-Feb-18 15:53 52.449634 -89.295506 230 35861ft 463kts
26-Feb-18 15:54 52.312135 -89.536820 230 35859ft 463kts
26-Feb-18 15:55 52.172801 -89.778958 229 35863ft 462kts
26-Feb-18 15:56 52.000356 -90.075361 229 35862ft 464kts
26-Feb-18 15:57 51.757729 -90.486398 229 35859ft 464kts
26-Feb-18 15:58 51.519980 -90.882646 228 35864ft 462kts
26-Feb-18 15:59 51.269417 -91.293434 228 35858ft 461kts
26-Feb-18 16:00 51.067262 -91.619975 228 35840ft 462kts
26-Feb-18 16:01 50.944810 -91.815556 228 35845ft 455kts
26-Feb-18 16:02 50.832087 -91.994400 229 35845ft 450kts
26-Feb-18 16:03 50.724978 -92.163096 229 35842ft 450kts
26-Feb-18 16:04 50.617219 -92.331649 229 35841ft 451kts
26-Feb-18 16:05 50.474089 -92.553747 229 35823ft 451kts
26-Feb-18 16:06 50.227162 -92.931978 228 35818ft 451kts
26-Feb-18 16:07 49.975254 -93.311928 228 35813ft 449kts
26-Feb-18 16:08 49.733436 -93.671211 228 35818ft 449kts
26-Feb-18 16:09 49.491684 -94.031827 238 35813ft 443kts
26-Feb-18 16:10 49.389878 -94.517929 256 35812ft 436kts
26-Feb-18 16:11 49.318717 -94.894587 255 35831ft 436kts
26-Feb-18 16:12 49.275053 -95.121863 255 35843ft 437kts
26-Feb-18 16:13 49.246442 -95.269412 255 35854ft 435kts
26-Feb-18 16:14 49.206160 -95.475186 255 35858ft 435kts
26-Feb-18 16:15 49.177060 -95.622609 255 35859ft 435kts
26-Feb-18 16:16 49.142075 -95.798198 254 35874ft 435kts
26-Feb-18 16:17 49.100804 -96.003336 254 35871ft 432kts
26-Feb-18 16:18 49.071509 -96.147668 254 35870ft 427kts
26-Feb-18 16:19 49.036505 -96.318801 254 35869ft 421kts
26-Feb-18 16:20 49.001728 -96.487372 254 35873ft 415kts
26-Feb-18 16:21 48.967327 -96.652731 254 35873ft 409kts
26-Feb-18 16:22 48.932834 -96.817117 254 35883ft 408kts
26-Feb-18 16:23 48.898295 -96.980579 254 35880ft 408kts
26-Feb-18 16:24 48.851128 -97.135419 233 35886ft 422kts
26-Feb-18 16:25 48.764329 -97.256377 227 35886ft 427kts
26-Feb-18 16:26 48.675282 -97.374784 227 35894ft 427kts
26-Feb-18 16:27 48.586388 -97.492061 227 35900ft 427kts
26-Feb-18 16:28 48.497189 -97.609160 227 35898ft 426kts
26-Feb-18 16:29 48.408066 -97.725543 226 35914ft 426kts
26-Feb-18 16:30 48.318747 -97.841628 226 35910ft 427kts
26-Feb-18 16:31 48.229109 -97.957614 226 35891ft 426kts
26-Feb-18 16:32 48.139517 -98.072930 226 35875ft 426kts
26-Feb-18 16:33 48.049602 -98.188117 226 35879ft 427kts
26-Feb-18 16:34 47.959695 -98.302757 226 35873ft 426kts
26-Feb-18 16:35 47.869950 -98.416662 226 35880ft 426kts
26-Feb-18 16:36 47.779771 -98.530550 226 35877ft 428kts
26-Feb-18 16:37 47.689390 -98.644218 226 35876ft 427kts
26-Feb-18 16:38 47.599885 -98.756213 225 35893ft 428kts
26-Feb-18 16:39 47.509187 -98.869187 225 35886ft 428kts
26-Feb-18 16:40 47.419935 -98.979899 225 35896ft 430kts
26-Feb-18 16:41 47.332506 -99.087787 225 35908ft 432kts
26-Feb-18 16:42 47.240373 -99.200952 225 35905ft 432kts
26-Feb-18 16:43 47.148354 -99.313444 225 35904ft 432kts
26-Feb-18 16:44 47.056458 -99.425282 225 35901ft 431kts
26-Feb-18 16:45 46.964772 -99.536280 225 35899ft 425kts
26-Feb-18 16:46 46.874891 -99.644663 226 35902ft 418kts
26-Feb-18 16:47 46.784984 -99.752654 225 35919ft 420kts
26-Feb-18 16:48 46.695116 -99.860070 225 35922ft 419kts
26-Feb-18 16:49 46.605027 -99.967287 225 35918ft 419kts
26-Feb-18 16:50 46.514981 -100.073947 225 35918ft 419kts
26-Feb-18 16:51 46.424897 -100.180210 225 35914ft 419kts
26-Feb-18 16:52 46.334474 -100.286371 225 35912ft 420kts
26-Feb-18 16:53 46.244123 -100.392006 225 35911ft 420kts
26-Feb-18 16:54 46.153650 -100.497268 225 35904ft 419kts
26-Feb-18 16:55 46.062928 -100.602379 225 35897ft 420kts
26-Feb-18 16:56 45.972220 -100.707046 225 35908ft 421kts
26-Feb-18 16:57 45.881161 -100.811647 225 35914ft 421kts
26-Feb-18 16:58 45.790063 -100.915881 225 35912ft 421kts
26-Feb-18 16:59 45.698891 -101.019759 224 35908ft 421kts
26-Feb-18 17:00 45.607684 -101.123174 224 35908ft 421kts
26-Feb-18 17:01 45.516126 -101.226586 224 35904ft 421kts
26-Feb-18 17:02 45.424410 -101.329710 224 35900ft 421kts
26-Feb-18 17:03 45.332684 -101.432398 224 35900ft 422kts
26-Feb-18 17:04 45.240814 -101.534831 224 35901ft 421kts
26-Feb-18 17:05 45.148820 -101.637008 224 35915ft 421kts
26-Feb-18 17:06 45.088135 -101.705904 229 35931ft 418kts
26-Feb-18 17:07 45.030238 -101.833701 243 35934ft 406kts
26-Feb-18 17:08 44.974721 -101.971506 243 35936ft 405kts
26-Feb-18 17:09 44.918836 -102.109036 243 35934ft 405kts
26-Feb-18 17:10 44.862871 -102.246103 243 35933ft 405kts
26-Feb-18 17:11 44.806736 -102.382879 243 35918ft 405kts
26-Feb-18 17:12 44.750330 -102.519663 243 35903ft 405kts
26-Feb-18 17:13 44.693707 -102.656331 242 35900ft 405kts
26-Feb-18 17:14 44.637133 -102.792236 243 35941ft 405kts
26-Feb-18 17:15 44.580354 -102.927981 242 35935ft 405kts
26-Feb-18 17:16 44.523525 -103.063151 243 35933ft 404kts
26-Feb-18 17:17 44.466686 -103.197771 242 35931ft 401kts
26-Feb-18 17:18 44.411941 -103.326735 242 35930ft 400kts
26-Feb-18 17:19 44.355184 -103.459879 242 35929ft 401kts
26-Feb-18 17:20 44.298127 -103.593102 242 35925ft 401kts
26-Feb-18 17:21 44.240954 -103.725989 242 35938ft 401kts
26-Feb-18 17:22 44.183579 -103.858740 242 35939ft 401kts
26-Feb-18 17:23 44.125977 -103.991379 242 35928ft 401kts
26-Feb-18 17:24 44.068254 -104.123677 242 35932ft 401kts
26-Feb-18 17:25 44.010580 -104.255271 242 35939ft 402kts
26-Feb-18 17:26 43.951806 -104.388828 242 37546ft 416kts
26-Feb-18 17:27 43.893430 -104.520763 242 37918ft 401kts
26-Feb-18 17:28 43.835159 -104.651851 241 37935ft 401kts
26-Feb-18 17:29 43.776841 -104.782565 241 37952ft 401kts
26-Feb-18 17:30 43.718237 -104.913288 241 37946ft 401kts
26-Feb-18 17:31 43.659460 -105.043814 241 37913ft 401kts
26-Feb-18 17:32 43.600651 -105.173792 240 37899ft 401kts
26-Feb-18 17:33 43.541551 -105.303821 241 37910ft 402kts
26-Feb-18 17:34 43.482366 -105.433475 241 37911ft 401kts
26-Feb-18 17:35 43.423113 -105.562760 241 37906ft 401kts
26-Feb-18 17:36 43.363587 -105.691991 240 37925ft 402kts
26-Feb-18 17:37 43.303821 -105.821193 240 37920ft 402kts
26-Feb-18 17:38 43.243922 -105.950173 240 37912ft 402kts
26-Feb-18 17:39 43.184066 -106.078478 240 37896ft 402kts
26-Feb-18 17:40 43.123841 -106.206975 240 37894ft 401kts
26-Feb-18 17:41 43.061329 -106.333171 238 37893ft 402kts
26-Feb-18 17:42 42.996159 -106.457488 238 37889ft 405kts
26-Feb-18 17:43 42.930456 -106.582063 237 37886ft 408kts
26-Feb-18 17:44 42.864097 -106.707297 236 37905ft 411kts
26-Feb-18 17:45 42.797311 -106.832759 236 37904ft 410kts
26-Feb-18 17:46 42.731134 -106.956623 236 37899ft 405kts
26-Feb-18 17:47 42.665305 -107.079342 236 37902ft 402kts
26-Feb-18 17:48 42.599398 -107.201650 236 37913ft 402kts
26-Feb-18 17:49 42.533507 -107.323467 236 37931ft 402kts
26-Feb-18 17:50 42.467595 -107.444783 236 37928ft 402kts
26-Feb-18 17:51 42.401491 -107.566009 236 37927ft 402kts
26-Feb-18 17:52 42.335270 -107.686903 235 37941ft 402kts
26-Feb-18 17:53 42.268626 -107.808140 235 37933ft 402kts
26-Feb-18 17:54 42.202065 -107.928743 235 37935ft 402kts
26-Feb-18 17:55 42.135421 -108.049001 235 37922ft 402kts
26-Feb-18 17:56 42.068545 -108.169191 235 37877ft 402kts
26-Feb-18 17:57 42.001607 -108.289018 235 37865ft 402kts
26-Feb-18 17:58 41.934629 -108.408454 235 37885ft 402kts
26-Feb-18 17:59 41.867227 -108.528167 235 37893ft 402kts
26-Feb-18 18:00 41.800089 -108.646925 235 37893ft 402kts
26-Feb-18 18:01 41.733512 -108.764250 235 37905ft 402kts
26-Feb-18 18:02 41.665770 -108.883158 235 37902ft 402kts
26-Feb-18 18:03 41.598105 -109.001365 234 37901ft 402kts
26-Feb-18 18:04 41.519693 -109.108430 228 37898ft 405kts
26-Feb-18 18:05 41.440323 -109.213487 228 37896ft 404kts
26-Feb-18 18:06 41.360505 -109.318555 228 37892ft 404kts
26-Feb-18 18:07 41.280645 -109.423241 228 37888ft 404kts
26-Feb-18 18:08 41.200622 -109.527733 228 37894ft 405kts
26-Feb-18 18:09 41.120754 -109.631694 228 37909ft 405kts
26-Feb-18 18:10 41.040436 -109.735905 227 37929ft 408kts
26-Feb-18 18:11 40.959960 -109.839922 226 37916ft 413kts
26-Feb-18 18:12 40.877871 -109.945522 226 37927ft 413kts
26-Feb-18 18:13 40.795968 -110.050574 226 37924ft 412kts
26-Feb-18 18:14 40.713911 -110.155445 226 37926ft 412kts
26-Feb-18 18:15 40.631875 -110.259900 226 37927ft 412kts
26-Feb-18 18:16 40.549492 -110.364440 226 37924ft 413kts
26-Feb-18 18:17 40.467194 -110.468511 226 37922ft 412kts
26-Feb-18 18:18 40.384794 -110.572319 226 37904ft 412kts
26-Feb-18 18:19 40.302339 -110.675804 225 37914ft 413kts
26-Feb-18 18:20 40.219630 -110.779289 225 37908ft 412kts
26-Feb-18 18:21 40.137102 -110.882152 226 37906ft 413kts
26-Feb-18 18:22 40.054455 -110.984815 225 37902ft 411kts
26-Feb-18 18:23 39.971997 -111.086883 225 37900ft 410kts
26-Feb-18 18:24 39.889686 -111.188385 225 37904ft 409kts
26-Feb-18 18:25 39.807160 -111.289801 225 37903ft 409kts
26-Feb-18 18:26 39.724634 -111.390920 225 37902ft 409kts
26-Feb-18 18:27 39.642147 -111.491576 225 37900ft 409kts
26-Feb-18 18:28 39.559305 -111.592328 225 37893ft 409kts
26-Feb-18 18:29 39.476783 -111.692359 225 37901ft 409kts
26-Feb-18 18:30 39.407546 -111.776060 225 37888ft 409kts
26-Feb-18 18:31 39.310999 -111.892387 225 37881ft 410kts
26-Feb-18 18:32 39.227842 -111.992161 225 37876ft 410kts
26-Feb-18 18:33 39.157543 -112.073482 218 37870ft 412kts
26-Feb-18 18:34 39.026122 -112.118724 194 37868ft 433kts
26-Feb-18 18:35 38.926407 -112.133334 192 37873ft 438kts
26-Feb-18 18:36 38.805366 -112.150292 192 37882ft 440kts
26-Feb-18 18:37 38.664143 -112.169987 192 37888ft 439kts
26-Feb-18 18:38 38.563424 -112.183994 192 37900ft 440kts
26-Feb-18 18:39 38.442497 -112.200745 192 37897ft 439kts
26-Feb-18 18:40 38.321259 -112.217494 192 37902ft 440kts
26-Feb-18 18:41 38.200379 -112.234140 192 37920ft 440kts
26-Feb-18 18:42 38.079332 -112.250748 192 37919ft 440kts
26-Feb-18 18:43 37.958340 -112.267301 192 37917ft 440kts
26-Feb-18 18:44 37.837219 -112.283812 192 37925ft 440kts
26-Feb-18 18:45 37.715257 -112.292878 189 37926ft 441kts
26-Feb-18 18:46 37.593001 -112.301811 189 37925ft 441kts
26-Feb-18 18:47 37.470901 -112.310754 189 37923ft 442kts
26-Feb-18 18:48 37.348770 -112.319688 189 37921ft 442kts
26-Feb-18 18:49 37.226657 -112.328600 189 37921ft 441kts
26-Feb-18 18:50 37.104240 -112.337458 189 37920ft 441kts
26-Feb-18 18:51 36.983379 -112.346034 190 37922ft 433kts
26-Feb-18 18:52 36.864127 -112.354491 190 37939ft 431kts
26-Feb-18 18:53 36.744755 -112.362960 190 37940ft 432kts
26-Feb-18 18:54 36.625443 -112.371374 190 37953ft 431kts
26-Feb-18 18:55 36.509176 -112.379485 190 37951ft 432kts
26-Feb-18 18:56 36.456195 -112.383180 190 37950ft 431kts
26-Feb-18 18:57 36.456195 -112.383180 190 37950ft 431kts
26-Feb-18 18:58 36.420931 -112.385615 190 37952ft 432kts
26-Feb-18 18:59 36.419125 -112.385663 190 37953ft 432kts
26-Feb-18 19:06 36.427362 -112.383959 178 37434ft 432kts
26-Feb-18 19:07 36.332176 -112.386601 181 35016ft 447kts
26-Feb-18 19:08 36.213381 -112.390617 183 33619ft 427kts
26-Feb-18 19:09 36.092237 -112.407857 184 32592ft 488kts
26-Feb-18 19:10 35.961208 -112.415305 176 31458ft 489kts
26-Feb-18 19:11 35.825877 -112.425778 184 30292ft 490kts
26-Feb-18 19:12 35.691664 -112.436868 183 29081ft 481kts
26-Feb-18 19:13 35.558955 -112.446911 183 29003ft 480kts
26-Feb-18 19:14 35.426723 -112.438730 171 29005ft 478kts
26-Feb-18 19:15 35.295659 -112.413277 170 29003ft 479kts
26-Feb-18 19:16 35.165147 -112.386533 175 28533ft 469kts
26-Feb-18 19:17 35.042687 -112.360396 177 27240ft 432kts
26-Feb-18 19:18 34.928251 -112.335656 178 25642ft 408kts
26-Feb-18 19:19 34.819041 -112.311655 175 24108ft 392kts
26-Feb-18 19:20 34.716949 -112.275810 175 22576ft 370kts
26-Feb-18 19:21 34.622091 -112.261698 179 21153ft 330kts
26-Feb-18 19:22 34.533140 -112.245970 178 19843ft 324kts
26-Feb-18 19:23 34.444871 -112.229874 176 18528ft 320kts
26-Feb-18 19:24 34.359437 -112.207682 174 17196ft 309kts
26-Feb-18 19:25 34.276800 -112.186297 173 15864ft 300kts
26-Feb-18 19:26 34.196536 -112.165561 173 14537ft 293kts
26-Feb-18 19:27 34.117643 -112.145216 172 13207ft 288kts
26-Feb-18 19:28 34.041876 -112.118950 165 12353ft 283kts
26-Feb-18 19:29 33.975072 -112.091840 165 11796ft 283kts
26-Feb-18 19:30 33.900616 -112.061598 165 11175ft 283kts
26-Feb-18 19:31 33.826166 -112.031398 165 10668ft 284kts
26-Feb-18 19:32 33.751169 -112.001019 165 9675ft 287kts
26-Feb-18 19:33 33.675394 -111.970415 164 8265ft 283kts
26-Feb-18 19:34 33.604460 -111.941757 164 7076ft 265kts
26-Feb-18 19:35 33.539859 -111.912733 141 6997ft 246kts
26-Feb-18 19:36 33.527657 -111.835821 87 6144ft 241kts
26-Feb-18 19:37 33.527081 -111.756781 109 5139ft 236kts
26-Feb-18 19:38 33.473939 -111.745106 189 4264ft 207kts
26-Feb-18 19:39 33.437324 -111.775336 277 4036ft 176kts
26-Feb-18 19:40 33.440099 -111.833268 272 3715ft 174kts
26-Feb-18 19:41 33.440565 -111.887177 271 2849ft 155kts
26-Feb-18 19:42 33.440718 -111.937979 270 2022ft 149kts
26-Feb-18 19:43 33.440755 -111.985905 270 1268ft 145kts
26-Feb-18 19:44 33.440830 -112.011595 270 1126ft 26kts
26-Feb-18 19:45 33.440177 -112.013628 196 1126ft 0kts
26-Feb-18 19:46 33.439269 -112.014040 183 1126ft 11kts
26-Feb-18 19:47 33.439001 -112.010382 90 1126ft 14kts
26-Feb-18 19:48 33.438994 -112.005502 87 1126ft 15kts
26-Feb-18 19:49 33.439020 -112.000640 89 1126ft 14kts
26-Feb-18 19:50 33.439025 -111.995892 90 1126ft 15kts
26-Feb-18 19:51 33.437800 -111.993030 180 1126ft 9kts
26-Feb-18 19:52 33.437489 -111.993587 264 1126ft 0kts
26-Feb-18 19:53 33.437483 -111.993117 272 1126ft 3kts
26-Feb-18 19:54 33.437456 -111.993566 268 1126ft 0kts

Navigation Log

Ident Type
Flight plan parsing failed, navigation log unavailable